sensor_id;sensor_type;location;lat;lon;timestamp;temperature;humidity
4651;DHT22;2338;49.602;8.722;2023-12-20T00:01:41;6.00;99.90
4651;DHT22;2338;49.602;8.722;2023-12-20T00:04:28;6.00;99.90
4651;DHT22;2338;49.602;8.722;2023-12-20T00:07:13;6.00;99.90
4651;DHT22;2338;49.602;8.722;2023-12-20T00:09:59;5.90;99.90
4651;DHT22;2338;49.602;8.722;2023-12-20T00:12:44;6.00;99.90
4651;DHT22;2338;49.602;8.722;2023-12-20T00:15:30;5.90;99.90
4651;DHT22;2338;49.602;8.722;2023-12-20T00:18:16;6.00;99.90
4651;DHT22;2338;49.602;8.722;2023-12-20T00:21:03;6.00;99.90
4651;DHT22;2338;49.602;8.722;2023-12-20T00:23:49;5.90;99.90
4651;DHT22;2338;49.602;8.722;2023-12-20T00:26:35;5.90;99.90
4651;DHT22;2338;49.602;8.722;2023-12-20T00:29:20;6.00;99.90
4651;DHT22;2338;49.602;8.722;2023-12-20T00:32:06;6.00;99.90
4651;DHT22;2338;49.602;8.722;2023-12-20T00:34:52;6.00;99.90
4651;DHT22;2338;49.602;8.722;2023-12-20T00:37:39;6.10;99.90
4651;DHT22;2338;49.602;8.722;2023-12-20T00:40:25;6.10;99.90
4651;DHT22;2338;49.602;8.722;2023-12-20T00:43:10;6.10;99.90
4651;DHT22;2338;49.602;8.722;2023-12-20T00:45:57;6.10;99.90
4651;DHT22;2338;49.602;8.722;2023-12-20T00:48:44;6.10;99.90
4651;DHT22;2338;49.602;8.722;2023-12-20T00:51:30;6.00;99.90
4651;DHT22;2338;49.602;8.722;2023-12-20T00:54:17;6.10;99.90
4651;DHT22;2338;49.602;8.722;2023-12-20T00:57:02;6.10;99.90
4651;DHT22;2338;49.602;8.722;2023-12-20T00:59:48;6.10;99.90
4651;DHT22;2338;49.602;8.722;2023-12-20T01:02:33;6.10;99.90
4651;DHT22;2338;49.602;8.722;2023-12-20T01:05:19;6.10;99.90
4651;DHT22;2338;49.602;8.722;2023-12-20T01:08:07;6.10;99.90
4651;DHT22;2338;49.602;8.722;2023-12-20T01:10:54;6.10;99.90
4651;DHT22;2338;49.602;8.722;2023-12-20T01:13:40;6.10;99.90
4651;DHT22;2338;49.602;8.722;2023-12-20T01:16:25;6.10;99.90
4651;DHT22;2338;49.602;8.722;2023-12-20T01:19:11;6.20;99.90
4651;DHT22;2338;49.602;8.722;2023-12-20T01:21:57;6.20;99.90
4651;DHT22;2338;49.602;8.722;2023-12-20T01:24:42;6.10;99.90
4651;DHT22;2338;49.602;8.722;2023-12-20T01:27:29;6.10;99.90
4651;DHT22;2338;49.602;8.722;2023-12-20T01:30:16;6.10;99.90
4651;DHT22;2338;49.602;8.722;2023-12-20T01:33:02;6.10;99.90
4651;DHT22;2338;49.602;8.722;2023-12-20T01:35:47;6.10;99.90
4651;DHT22;2338;49.602;8.722;2023-12-20T01:38:33;6.10;99.90
4651;DHT22;2338;49.602;8.722;2023-12-20T01:41:19;6.00;99.90
4651;DHT22;2338;49.602;8.722;2023-12-20T01:44:06;6.00;99.90
4651;DHT22;2338;49.602;8.722;2023-12-20T01:46:51;6.00;99.90
4651;DHT22;2338;49.602;8.722;2023-12-20T01:49:37;6.10;99.90
4651;DHT22;2338;49.602;8.722;2023-12-20T01:52:23;6.00;99.90
4651;DHT22;2338;49.602;8.722;2023-12-20T01:55:09;6.10;99.90
4651;DHT22;2338;49.602;8.722;2023-12-20T01:57:57;6.10;99.90
4651;DHT22;2338;49.602;8.722;2023-12-20T02:00:45;6.00;99.90
4651;DHT22;2338;49.602;8.722;2023-12-20T02:03:30;6.00;99.90
4651;DHT22;2338;49.602;8.722;2023-12-20T02:06:17;6.00;99.90
4651;DHT22;2338;49.602;8.722;2023-12-20T02:09:03;6.00;99.90
4651;DHT22;2338;49.602;8.722;2023-12-20T02:11:49;6.00;99.90
4651;DHT22;2338;49.602;8.722;2023-12-20T02:14:35;6.10;99.90
4651;DHT22;2338;49.602;8.722;2023-12-20T02:17:22;6.10;99.90
4651;DHT22;2338;49.602;8.722;2023-12-20T02:20:09;6.10;99.90
4651;DHT22;2338;49.602;8.722;2023-12-20T02:22:56;6.10;99.90
4651;DHT22;2338;49.602;8.722;2023-12-20T02:25:42;6.10;99.90
4651;DHT22;2338;49.602;8.722;2023-12-20T02:28:28;6.10;99.90
4651;DHT22;2338;49.602;8.722;2023-12-20T02:31:13;6.10;99.90
4651;DHT22;2338;49.602;8.722;2023-12-20T02:33:59;6.20;99.90
4651;DHT22;2338;49.602;8.722;2023-12-20T02:36:45;6.20;99.90
4651;DHT22;2338;49.602;8.722;2023-12-20T02:39:32;6.10;99.90
4651;DHT22;2338;49.602;8.722;2023-12-20T02:42:18;6.20;99.90
4651;DHT22;2338;49.602;8.722;2023-12-20T02:45:04;6.10;99.90
4651;DHT22;2338;49.602;8.722;2023-12-20T02:47:50;6.20;99.90
4651;DHT22;2338;49.602;8.722;2023-12-20T02:50:36;6.20;99.90
4651;DHT22;2338;49.602;8.722;2023-12-20T02:53:22;6.20;99.90
4651;DHT22;2338;49.602;8.722;2023-12-20T02:56:09;6.20;99.90
4651;DHT22;2338;49.602;8.722;2023-12-20T02:58:54;6.20;99.90
4651;DHT22;2338;49.602;8.722;2023-12-20T03:01:43;6.30;99.90
4651;DHT22;2338;49.602;8.722;2023-12-20T03:04:28;6.20;99.90
4651;DHT22;2338;49.602;8.722;2023-12-20T03:07:14;6.20;99.90
4651;DHT22;2338;49.602;8.722;2023-12-20T03:10:00;6.10;99.90
4651;DHT22;2338;49.602;8.722;2023-12-20T03:12:47;6.20;99.90
4651;DHT22;2338;49.602;8.722;2023-12-20T03:15:32;6.20;99.90
4651;DHT22;2338;49.602;8.722;2023-12-20T03:18:18;6.20;99.90
4651;DHT22;2338;49.602;8.722;2023-12-20T03:21:04;6.20;99.90
4651;DHT22;2338;49.602;8.722;2023-12-20T03:23:49;6.20;99.90
4651;DHT22;2338;49.602;8.722;2023-12-20T03:26:35;6.10;99.90
4651;DHT22;2338;49.602;8.722;2023-12-20T03:29:22;6.10;99.90
4651;DHT22;2338;49.602;8.722;2023-12-20T03:32:08;6.10;99.90
4651;DHT22;2338;49.602;8.722;2023-12-20T03:34:53;6.10;99.90
4651;DHT22;2338;49.602;8.722;2023-12-20T03:37:39;6.10;99.90
4651;DHT22;2338;49.602;8.722;2023-12-20T03:40:25;6.10;99.90
4651;DHT22;2338;49.602;8.722;2023-12-20T03:43:11;6.10;99.90
4651;DHT22;2338;49.602;8.722;2023-12-20T03:45:57;6.10;99.90
4651;DHT22;2338;49.602;8.722;2023-12-20T03:48:44;6.00;99.90
4651;DHT22;2338;49.602;8.722;2023-12-20T03:51:29;6.00;99.90
4651;DHT22;2338;49.602;8.722;2023-12-20T03:54:15;6.00;99.90
4651;DHT22;2338;49.602;8.722;2023-12-20T03:57:00;6.00;99.90
4651;DHT22;2338;49.602;8.722;2023-12-20T03:59:46;6.00;99.90
4651;DHT22;2338;49.602;8.722;2023-12-20T04:02:33;6.10;99.90
4651;DHT22;2338;49.602;8.722;2023-12-20T04:05:18;6.10;99.90
4651;DHT22;2338;49.602;8.722;2023-12-20T04:08:05;6.10;99.90
4651;DHT22;2338;49.602;8.722;2023-12-20T04:10:51;6.10;99.90
4651;DHT22;2338;49.602;8.722;2023-12-20T04:13:36;6.10;99.90
4651;DHT22;2338;49.602;8.722;2023-12-20T04:16:22;6.10;99.90
4651;DHT22;2338;49.602;8.722;2023-12-20T04:19:09;6.20;99.90
4651;DHT22;2338;49.602;8.722;2023-12-20T04:21:54;6.20;99.90
4651;DHT22;2338;49.602;8.722;2023-12-20T04:24:40;6.20;99.90
4651;DHT22;2338;49.602;8.722;2023-12-20T04:27:26;6.20;99.90
4651;DHT22;2338;49.602;8.722;2023-12-20T04:30:12;6.10;99.90
4651;DHT22;2338;49.602;8.722;2023-12-20T04:32:57;6.10;99.90
4651;DHT22;2338;49.602;8.722;2023-12-20T04:35:45;6.20;99.90
4651;DHT22;2338;49.602;8.722;2023-12-20T04:38:31;6.20;99.90
4651;DHT22;2338;49.602;8.722;2023-12-20T04:41:16;6.20;99.90
4651;DHT22;2338;49.602;8.722;2023-12-20T04:44:03;6.10;99.90
4651;DHT22;2338;49.602;8.722;2023-12-20T04:46:48;6.10;99.90
4651;DHT22;2338;49.602;8.722;2023-12-20T04:49:34;6.20;99.90
4651;DHT22;2338;49.602;8.722;2023-12-20T04:52:21;6.20;99.90
4651;DHT22;2338;49.602;8.722;2023-12-20T04:55:07;6.20;99.90
4651;DHT22;2338;49.602;8.722;2023-12-20T04:57:53;6.20;99.90
4651;DHT22;2338;49.602;8.722;2023-12-20T05:00:38;6.20;99.90
4651;DHT22;2338;49.602;8.722;2023-12-20T05:03:24;6.20;99.90
4651;DHT22;2338;49.602;8.722;2023-12-20T05:06:10;6.10;99.90
4651;DHT22;2338;49.602;8.722;2023-12-20T05:08:57;6.10;99.90
4651;DHT22;2338;49.602;8.722;2023-12-20T05:11:42;6.10;99.90
4651;DHT22;2338;49.602;8.722;2023-12-20T05:14:28;6.10;99.90
4651;DHT22;2338;49.602;8.722;2023-12-20T05:17:13;6.10;99.90
4651;DHT22;2338;49.602;8.722;2023-12-20T05:19:59;6.20;99.90
4651;DHT22;2338;49.602;8.722;2023-12-20T05:22:45;6.20;99.90
4651;DHT22;2338;49.602;8.722;2023-12-20T05:25:32;6.30;99.90
4651;DHT22;2338;49.602;8.722;2023-12-20T05:28:18;6.20;99.90
4651;DHT22;2338;49.602;8.722;2023-12-20T05:31:03;6.20;99.90
4651;DHT22;2338;49.602;8.722;2023-12-20T05:33:49;6.20;99.90
4651;DHT22;2338;49.602;8.722;2023-12-20T05:36:35;6.20;99.90
4651;DHT22;2338;49.602;8.722;2023-12-20T05:39:21;6.20;99.90
4651;DHT22;2338;49.602;8.722;2023-12-20T05:42:08;6.10;99.90
4651;DHT22;2338;49.602;8.722;2023-12-20T05:44:54;6.10;99.90
4651;DHT22;2338;49.602;8.722;2023-12-20T05:47:39;6.10;99.90
4651;DHT22;2338;49.602;8.722;2023-12-20T05:50:25;6.10;99.90
4651;DHT22;2338;49.602;8.722;2023-12-20T05:53:10;6.20;99.90
4651;DHT22;2338;49.602;8.722;2023-12-20T05:55:56;6.20;99.90
4651;DHT22;2338;49.602;8.722;2023-12-20T05:58:43;6.20;99.90
4651;DHT22;2338;49.602;8.722;2023-12-20T06:01:29;6.20;99.90
4651;DHT22;2338;49.602;8.722;2023-12-20T06:04:14;6.20;99.90
4651;DHT22;2338;49.602;8.722;2023-12-20T06:07:00;6.20;99.90
4651;DHT22;2338;49.602;8.722;2023-12-20T06:09:45;6.20;99.90
4651;DHT22;2338;49.602;8.722;2023-12-20T06:12:31;6.20;99.90
4651;DHT22;2338;49.602;8.722;2023-12-20T06:15:21;6.20;99.90
4651;DHT22;2338;49.602;8.722;2023-12-20T06:18:07;6.20;99.90
4651;DHT22;2338;49.602;8.722;2023-12-20T06:20:53;6.10;99.90
4651;DHT22;2338;49.602;8.722;2023-12-20T06:23:38;6.20;99.90
4651;DHT22;2338;49.602;8.722;2023-12-20T06:26:24;6.20;99.90
4651;DHT22;2338;49.602;8.722;2023-12-20T06:29:10;6.10;99.90
4651;DHT22;2338;49.602;8.722;2023-12-20T06:31:57;6.10;99.90
4651;DHT22;2338;49.602;8.722;2023-12-20T06:34:42;6.10;99.90
4651;DHT22;2338;49.602;8.722;2023-12-20T06:37:28;6.10;99.90
4651;DHT22;2338;49.602;8.722;2023-12-20T06:40:14;6.10;99.90
4651;DHT22;2338;49.602;8.722;2023-12-20T06:43:00;6.10;99.90
4651;DHT22;2338;49.602;8.722;2023-12-20T06:45:45;6.10;99.90
4651;DHT22;2338;49.602;8.722;2023-12-20T06:48:33;6.00;99.90
4651;DHT22;2338;49.602;8.722;2023-12-20T06:51:18;6.20;99.90
4651;DHT22;2338;49.602;8.722;2023-12-20T06:54:05;6.10;99.90
4651;DHT22;2338;49.602;8.722;2023-12-20T06:56:51;6.10;99.90
4651;DHT22;2338;49.602;8.722;2023-12-20T06:59:38;6.10;99.90
4651;DHT22;2338;49.602;8.722;2023-12-20T07:02:25;6.10;99.90
4651;DHT22;2338;49.602;8.722;2023-12-20T07:05:16;6.00;99.90
4651;DHT22;2338;49.602;8.722;2023-12-20T07:08:04;5.90;99.90
4651;DHT22;2338;49.602;8.722;2023-12-20T07:10:50;5.80;99.90
4651;DHT22;2338;49.602;8.722;2023-12-20T07:13:36;5.60;99.90
4651;DHT22;2338;49.602;8.722;2023-12-20T07:16:21;5.60;99.90
4651;DHT22;2338;49.602;8.722;2023-12-20T07:19:07;5.40;99.90
4651;DHT22;2338;49.602;8.722;2023-12-20T07:21:55;5.40;99.90
4651;DHT22;2338;49.602;8.722;2023-12-20T07:24:40;5.30;99.90
4651;DHT22;2338;49.602;8.722;2023-12-20T07:27:26;5.30;99.90
4651;DHT22;2338;49.602;8.722;2023-12-20T07:30:12;5.10;99.90
4651;DHT22;2338;49.602;8.722;2023-12-20T07:32:58;5.00;99.90
4651;DHT22;2338;49.602;8.722;2023-12-20T07:35:43;4.90;99.90
4651;DHT22;2338;49.602;8.722;2023-12-20T07:38:31;4.90;99.90
4651;DHT22;2338;49.602;8.722;2023-12-20T07:41:16;4.90;99.90
4651;DHT22;2338;49.602;8.722;2023-12-20T07:44:04;4.80;99.90
4651;DHT22;2338;49.602;8.722;2023-12-20T07:46:50;4.70;99.90
4651;DHT22;2338;49.602;8.722;2023-12-20T07:49:36;4.60;99.90
4651;DHT22;2338;49.602;8.722;2023-12-20T07:52:22;4.60;99.90
4651;DHT22;2338;49.602;8.722;2023-12-20T07:55:10;4.60;99.90
4651;DHT22;2338;49.602;8.722;2023-12-20T07:57:55;4.60;99.90
4651;DHT22;2338;49.602;8.722;2023-12-20T08:00:41;4.60;99.90
4651;DHT22;2338;49.602;8.722;2023-12-20T08:03:27;4.60;99.90
4651;DHT22;2338;49.602;8.722;2023-12-20T08:06:12;4.60;99.90
4651;DHT22;2338;49.602;8.722;2023-12-20T08:08:58;4.60;99.90
4651;DHT22;2338;49.602;8.722;2023-12-20T08:11:46;4.70;99.90
4651;DHT22;2338;49.602;8.722;2023-12-20T08:14:31;4.80;99.90
4651;DHT22;2338;49.602;8.722;2023-12-20T08:17:17;4.90;99.90
4651;DHT22;2338;49.602;8.722;2023-12-20T08:20:04;4.90;99.90
4651;DHT22;2338;49.602;8.722;2023-12-20T08:22:49;5.00;99.90
4651;DHT22;2338;49.602;8.722;2023-12-20T08:25:35;5.10;99.90
4651;DHT22;2338;49.602;8.722;2023-12-20T08:28:22;5.20;99.90
4651;DHT22;2338;49.602;8.722;2023-12-20T08:31:13;5.20;99.90
4651;DHT22;2338;49.602;8.722;2023-12-20T08:33:59;5.30;99.90
4651;DHT22;2338;49.602;8.722;2023-12-20T08:36:45;5.40;99.90
4651;DHT22;2338;49.602;8.722;2023-12-20T08:39:30;5.40;99.90
4651;DHT22;2338;49.602;8.722;2023-12-20T08:42:18;5.40;99.90
4651;DHT22;2338;49.602;8.722;2023-12-20T08:45:05;5.40;99.90
4651;DHT22;2338;49.602;8.722;2023-12-20T08:47:51;5.50;99.90
4651;DHT22;2338;49.602;8.722;2023-12-20T08:50:37;5.50;99.90
4651;DHT22;2338;49.602;8.722;2023-12-20T08:53:23;5.50;99.90
4651;DHT22;2338;49.602;8.722;2023-12-20T08:56:09;5.50;99.90
4651;DHT22;2338;49.602;8.722;2023-12-20T08:58:55;5.50;99.90
4651;DHT22;2338;49.602;8.722;2023-12-20T09:01:42;5.60;99.90
4651;DHT22;2338;49.602;8.722;2023-12-20T09:04:27;5.70;99.90
4651;DHT22;2338;49.602;8.722;2023-12-20T09:07:23;5.80;99.90
4651;DHT22;2338;49.602;8.722;2023-12-20T09:10:08;5.90;99.90
4651;DHT22;2338;49.602;8.722;2023-12-20T09:12:54;5.90;99.90
4651;DHT22;2338;49.602;8.722;2023-12-20T09:15:41;6.00;99.90
4651;DHT22;2338;49.602;8.722;2023-12-20T09:18:28;6.00;99.90
4651;DHT22;2338;49.602;8.722;2023-12-20T09:21:13;6.10;99.90
4651;DHT22;2338;49.602;8.722;2023-12-20T09:23:59;6.20;99.90
4651;DHT22;2338;49.602;8.722;2023-12-20T09:26:44;6.30;99.90
4651;DHT22;2338;49.602;8.722;2023-12-20T09:29:30;6.40;99.90
4651;DHT22;2338;49.602;8.722;2023-12-20T09:32:16;6.40;99.90
4651;DHT22;2338;49.602;8.722;2023-12-20T09:35:03;6.50;99.90
4651;DHT22;2338;49.602;8.722;2023-12-20T09:37:49;6.50;99.90
4651;DHT22;2338;49.602;8.722;2023-12-20T09:40:36;6.50;99.90
4651;DHT22;2338;49.602;8.722;2023-12-20T09:43:26;6.50;99.90
4651;DHT22;2338;49.602;8.722;2023-12-20T09:46:15;6.60;99.90
4651;DHT22;2338;49.602;8.722;2023-12-20T09:49:05;6.70;99.90
4651;DHT22;2338;49.602;8.722;2023-12-20T09:51:55;6.70;99.90
4651;DHT22;2338;49.602;8.722;2023-12-20T09:54:41;6.70;99.90
4651;DHT22;2338;49.602;8.722;2023-12-20T09:57:28;6.70;99.90
4651;DHT22;2338;49.602;8.722;2023-12-20T10:00:14;6.70;99.90
4651;DHT22;2338;49.602;8.722;2023-12-20T10:03:01;6.70;99.90
4651;DHT22;2338;49.602;8.722;2023-12-20T10:05:47;6.70;99.90
4651;DHT22;2338;49.602;8.722;2023-12-20T10:08:36;6.70;99.90
4651;DHT22;2338;49.602;8.722;2023-12-20T10:11:21;6.60;99.90
4651;DHT22;2338;49.602;8.722;2023-12-20T10:14:07;6.60;99.90
4651;DHT22;2338;49.602;8.722;2023-12-20T10:16:52;6.60;99.90
4651;DHT22;2338;49.602;8.722;2023-12-20T10:19:39;6.60;99.90
4651;DHT22;2338;49.602;8.722;2023-12-20T10:22:25;6.60;99.90
4651;DHT22;2338;49.602;8.722;2023-12-20T10:25:13;6.60;99.90
4651;DHT22;2338;49.602;8.722;2023-12-20T10:28:09;6.60;99.90
4651;DHT22;2338;49.602;8.722;2023-12-20T10:30:55;6.60;99.90
4651;DHT22;2338;49.602;8.722;2023-12-20T10:33:41;6.70;99.90
4651;DHT22;2338;49.602;8.722;2023-12-20T10:36:29;6.70;99.90
4651;DHT22;2338;49.602;8.722;2023-12-20T10:39:15;6.70;99.90
4651;DHT22;2338;49.602;8.722;2023-12-20T10:42:03;6.70;99.90
4651;DHT22;2338;49.602;8.722;2023-12-20T10:44:50;6.70;99.90
4651;DHT22;2338;49.602;8.722;2023-12-20T10:47:36;6.70;99.90
4651;DHT22;2338;49.602;8.722;2023-12-20T10:50:23;6.80;99.90
4651;DHT22;2338;49.602;8.722;2023-12-20T10:53:08;6.80;99.90
4651;DHT22;2338;49.602;8.722;2023-12-20T10:55:56;6.80;99.90
4651;DHT22;2338;49.602;8.722;2023-12-20T10:58:47;6.80;99.90
4651;DHT22;2338;49.602;8.722;2023-12-20T11:01:35;6.80;99.90
4651;DHT22;2338;49.602;8.722;2023-12-20T11:04:25;6.80;99.90
4651;DHT22;2338;49.602;8.722;2023-12-20T11:07:20;6.80;99.90
4651;DHT22;2338;49.602;8.722;2023-12-20T11:10:13;6.80;99.90
4651;DHT22;2338;49.602;8.722;2023-12-20T11:13:08;6.80;99.90
4651;DHT22;2338;49.602;8.722;2023-12-20T11:15:56;6.90;99.90
4651;DHT22;2338;49.602;8.722;2023-12-20T11:18:41;6.90;99.90
4651;DHT22;2338;49.602;8.722;2023-12-20T11:21:29;6.90;99.90
4651;DHT22;2338;49.602;8.722;2023-12-20T11:24:16;6.90;99.90
4651;DHT22;2338;49.602;8.722;2023-12-20T11:27:01;6.90;99.90
4651;DHT22;2338;49.602;8.722;2023-12-20T11:29:51;7.00;99.90
4651;DHT22;2338;49.602;8.722;2023-12-20T11:32:40;7.00;99.90
4651;DHT22;2338;49.602;8.722;2023-12-20T11:35:27;7.00;99.90
4651;DHT22;2338;49.602;8.722;2023-12-20T11:38:13;7.00;99.90
4651;DHT22;2338;49.602;8.722;2023-12-20T11:40:59;7.00;99.90
4651;DHT22;2338;49.602;8.722;2023-12-20T11:43:48;7.00;99.90
4651;DHT22;2338;49.602;8.722;2023-12-20T11:46:33;7.00;99.90
4651;DHT22;2338;49.602;8.722;2023-12-20T11:49:23;7.00;99.90
4651;DHT22;2338;49.602;8.722;2023-12-20T11:52:11;6.90;99.90
4651;DHT22;2338;49.602;8.722;2023-12-20T11:54:57;6.80;99.90
4651;DHT22;2338;49.602;8.722;2023-12-20T11:57:43;6.80;99.90
4651;DHT22;2338;49.602;8.722;2023-12-20T12:00:29;6.80;99.90
4651;DHT22;2338;49.602;8.722;2023-12-20T12:03:15;6.90;99.90
4651;DHT22;2338;49.602;8.722;2023-12-20T12:06:02;6.90;99.90
4651;DHT22;2338;49.602;8.722;2023-12-20T12:08:48;6.90;99.90
4651;DHT22;2338;49.602;8.722;2023-12-20T12:11:35;6.90;99.90
4651;DHT22;2338;49.602;8.722;2023-12-20T12:14:20;6.90;99.90
4651;DHT22;2338;49.602;8.722;2023-12-20T12:17:10;6.90;99.90
4651;DHT22;2338;49.602;8.722;2023-12-20T12:20:02;6.90;99.90
4651;DHT22;2338;49.602;8.722;2023-12-20T12:22:59;6.90;99.90
4651;DHT22;2338;49.602;8.722;2023-12-20T12:25:45;6.90;99.90
4651;DHT22;2338;49.602;8.722;2023-12-20T12:28:30;6.80;99.90
4651;DHT22;2338;49.602;8.722;2023-12-20T12:31:17;6.80;99.90
4651;DHT22;2338;49.602;8.722;2023-12-20T12:34:03;6.90;99.90
4651;DHT22;2338;49.602;8.722;2023-12-20T12:36:48;6.80;99.90
4651;DHT22;2338;49.602;8.722;2023-12-20T12:39:35;6.90;99.90
4651;DHT22;2338;49.602;8.722;2023-12-20T12:42:21;6.90;99.90
4651;DHT22;2338;49.602;8.722;2023-12-20T12:45:13;6.90;99.90
4651;DHT22;2338;49.602;8.722;2023-12-20T12:47:59;6.90;99.90
4651;DHT22;2338;49.602;8.722;2023-12-20T12:50:45;6.90;99.90
4651;DHT22;2338;49.602;8.722;2023-12-20T12:53:31;7.00;99.90
4651;DHT22;2338;49.602;8.722;2023-12-20T12:56:18;7.00;99.90
4651;DHT22;2338;49.602;8.722;2023-12-20T12:59:03;7.00;99.90
4651;DHT22;2338;49.602;8.722;2023-12-20T13:01:50;6.90;99.90
4651;DHT22;2338;49.602;8.722;2023-12-20T13:04:35;7.00;99.90
4651;DHT22;2338;49.602;8.722;2023-12-20T13:07:21;6.90;99.90
4651;DHT22;2338;49.602;8.722;2023-12-20T13:10:07;6.90;99.90
4651;DHT22;2338;49.602;8.722;2023-12-20T13:12:54;6.90;99.90
4651;DHT22;2338;49.602;8.722;2023-12-20T13:15:40;6.90;99.90
4651;DHT22;2338;49.602;8.722;2023-12-20T13:18:25;6.90;99.90
4651;DHT22;2338;49.602;8.722;2023-12-20T13:21:11;6.90;99.90
4651;DHT22;2338;49.602;8.722;2023-12-20T13:23:57;6.90;99.90
4651;DHT22;2338;49.602;8.722;2023-12-20T13:26:42;6.90;99.90
4651;DHT22;2338;49.602;8.722;2023-12-20T13:29:29;6.90;99.90
4651;DHT22;2338;49.602;8.722;2023-12-20T13:32:15;6.90;99.90
4651;DHT22;2338;49.602;8.722;2023-12-20T13:35:00;6.90;99.90
4651;DHT22;2338;49.602;8.722;2023-12-20T13:37:46;6.90;99.90
4651;DHT22;2338;49.602;8.722;2023-12-20T13:40:32;6.90;99.90
4651;DHT22;2338;49.602;8.722;2023-12-20T13:43:18;6.90;99.90
4651;DHT22;2338;49.602;8.722;2023-12-20T13:46:06;6.90;99.90
4651;DHT22;2338;49.602;8.722;2023-12-20T13:48:51;6.80;99.90
4651;DHT22;2338;49.602;8.722;2023-12-20T13:51:37;6.80;99.90
4651;DHT22;2338;49.602;8.722;2023-12-20T13:54:23;6.90;99.90
4651;DHT22;2338;49.602;8.722;2023-12-20T13:57:08;6.90;99.90
4651;DHT22;2338;49.602;8.722;2023-12-20T13:59:54;7.00;99.90
4651;DHT22;2338;49.602;8.722;2023-12-20T14:02:42;7.00;99.90
4651;DHT22;2338;49.602;8.722;2023-12-20T14:05:28;7.00;99.90
4651;DHT22;2338;49.602;8.722;2023-12-20T14:08:14;7.00;99.90
4651;DHT22;2338;49.602;8.722;2023-12-20T14:10:59;7.00;99.90
4651;DHT22;2338;49.602;8.722;2023-12-20T14:13:46;7.00;99.90
4651;DHT22;2338;49.602;8.722;2023-12-20T14:16:31;6.90;99.90
4651;DHT22;2338;49.602;8.722;2023-12-20T14:19:18;6.90;99.90
4651;DHT22;2338;49.602;8.722;2023-12-20T14:22:04;6.80;99.90
4651;DHT22;2338;49.602;8.722;2023-12-20T14:24:50;6.80;99.90
4651;DHT22;2338;49.602;8.722;2023-12-20T14:27:36;6.90;99.90
4651;DHT22;2338;49.602;8.722;2023-12-20T14:30:22;6.90;99.90
4651;DHT22;2338;49.602;8.722;2023-12-20T14:33:07;6.90;99.90
4651;DHT22;2338;49.602;8.722;2023-12-20T14:35:55;6.90;99.90
4651;DHT22;2338;49.602;8.722;2023-12-20T14:38:41;6.90;99.90
4651;DHT22;2338;49.602;8.722;2023-12-20T14:41:26;6.90;99.90
4651;DHT22;2338;49.602;8.722;2023-12-20T14:44:12;6.90;99.90
4651;DHT22;2338;49.602;8.722;2023-12-20T14:46:58;6.80;99.90
4651;DHT22;2338;49.602;8.722;2023-12-20T14:49:46;6.90;99.90
4651;DHT22;2338;49.602;8.722;2023-12-20T14:52:34;6.80;99.90
4651;DHT22;2338;49.602;8.722;2023-12-20T14:55:21;6.90;99.90
4651;DHT22;2338;49.602;8.722;2023-12-20T14:58:07;6.80;99.90
4651;DHT22;2338;49.602;8.722;2023-12-20T15:00:53;6.80;99.90
4651;DHT22;2338;49.602;8.722;2023-12-20T15:03:40;6.90;99.90
4651;DHT22;2338;49.602;8.722;2023-12-20T15:06:26;6.80;99.90
4651;DHT22;2338;49.602;8.722;2023-12-20T15:09:13;6.80;99.90
4651;DHT22;2338;49.602;8.722;2023-12-20T15:11:58;6.90;99.90
4651;DHT22;2338;49.602;8.722;2023-12-20T15:14:44;6.80;99.90
4651;DHT22;2338;49.602;8.722;2023-12-20T15:17:31;6.70;99.90
4651;DHT22;2338;49.602;8.722;2023-12-20T15:20:17;6.80;99.90
4651;DHT22;2338;49.602;8.722;2023-12-20T15:23:03;6.80;99.90
4651;DHT22;2338;49.602;8.722;2023-12-20T15:25:50;6.70;99.90
4651;DHT22;2338;49.602;8.722;2023-12-20T15:28:36;6.70;99.90
4651;DHT22;2338;49.602;8.722;2023-12-20T15:31:22;6.80;99.90
4651;DHT22;2338;49.602;8.722;2023-12-20T15:34:10;6.70;99.90
4651;DHT22;2338;49.602;8.722;2023-12-20T15:36:57;6.80;99.90
4651;DHT22;2338;49.602;8.722;2023-12-20T15:39:46;6.80;99.90
4651;DHT22;2338;49.602;8.722;2023-12-20T15:42:36;6.70;99.90
4651;DHT22;2338;49.602;8.722;2023-12-20T15:45:22;6.70;99.90
4651;DHT22;2338;49.602;8.722;2023-12-20T15:48:09;6.80;99.90
4651;DHT22;2338;49.602;8.722;2023-12-20T15:50:57;6.80;99.90
4651;DHT22;2338;49.602;8.722;2023-12-20T15:53:43;6.80;99.90
4651;DHT22;2338;49.602;8.722;2023-12-20T15:56:29;6.80;99.90
4651;DHT22;2338;49.602;8.722;2023-12-20T15:59:16;6.80;99.90
4651;DHT22;2338;49.602;8.722;2023-12-20T16:02:02;6.80;99.90
4651;DHT22;2338;49.602;8.722;2023-12-20T16:04:47;6.80;99.90
4651;DHT22;2338;49.602;8.722;2023-12-20T16:07:33;6.80;99.90
4651;DHT22;2338;49.602;8.722;2023-12-20T16:10:19;6.80;99.90
4651;DHT22;2338;49.602;8.722;2023-12-20T16:13:04;6.80;99.90
4651;DHT22;2338;49.602;8.722;2023-12-20T16:15:52;6.80;99.90
4651;DHT22;2338;49.602;8.722;2023-12-20T16:18:38;6.80;99.90
4651;DHT22;2338;49.602;8.722;2023-12-20T16:21:23;6.70;99.90
4651;DHT22;2338;49.602;8.722;2023-12-20T16:24:09;6.70;99.90
4651;DHT22;2338;49.602;8.722;2023-12-20T16:26:55;6.80;99.90
4651;DHT22;2338;49.602;8.722;2023-12-20T16:29:40;6.70;99.90
4651;DHT22;2338;49.602;8.722;2023-12-20T16:32:27;6.70;99.90
4651;DHT22;2338;49.602;8.722;2023-12-20T16:35:13;6.70;99.90
4651;DHT22;2338;49.602;8.722;2023-12-20T16:37:59;6.70;99.90
4651;DHT22;2338;49.602;8.722;2023-12-20T16:40:44;6.70;99.90
4651;DHT22;2338;49.602;8.722;2023-12-20T16:43:30;6.80;99.90
4651;DHT22;2338;49.602;8.722;2023-12-20T16:46:16;6.80;99.90
4651;DHT22;2338;49.602;8.722;2023-12-20T16:49:03;6.80;99.90
4651;DHT22;2338;49.602;8.722;2023-12-20T16:51:52;6.80;99.90
4651;DHT22;2338;49.602;8.722;2023-12-20T16:54:40;6.80;99.90
4651;DHT22;2338;49.602;8.722;2023-12-20T16:57:27;6.80;99.90
4651;DHT22;2338;49.602;8.722;2023-12-20T17:00:13;6.80;99.90
4651;DHT22;2338;49.602;8.722;2023-12-20T17:03:00;6.90;99.90
4651;DHT22;2338;49.602;8.722;2023-12-20T17:05:47;6.90;99.90
4651;DHT22;2338;49.602;8.722;2023-12-20T17:08:33;6.90;99.90
4651;DHT22;2338;49.602;8.722;2023-12-20T17:11:18;6.80;99.90
4651;DHT22;2338;49.602;8.722;2023-12-20T17:14:07;6.80;99.90
4651;DHT22;2338;49.602;8.722;2023-12-20T17:16:53;6.80;99.90
4651;DHT22;2338;49.602;8.722;2023-12-20T17:19:39;6.80;99.90
4651;DHT22;2338;49.602;8.722;2023-12-20T17:22:27;6.80;99.90
4651;DHT22;2338;49.602;8.722;2023-12-20T17:25:12;6.80;99.90
4651;DHT22;2338;49.602;8.722;2023-12-20T17:27:58;6.70;99.90
4651;DHT22;2338;49.602;8.722;2023-12-20T17:30:43;6.80;99.90
4651;DHT22;2338;49.602;8.722;2023-12-20T17:33:29;6.80;99.90
4651;DHT22;2338;49.602;8.722;2023-12-20T17:36:15;6.90;99.90
4651;DHT22;2338;49.602;8.722;2023-12-20T17:39:02;6.80;99.90
4651;DHT22;2338;49.602;8.722;2023-12-20T17:41:49;6.80;99.90
4651;DHT22;2338;49.602;8.722;2023-12-20T17:44:35;6.80;99.90
4651;DHT22;2338;49.602;8.722;2023-12-20T17:47:21;6.90;99.90
4651;DHT22;2338;49.602;8.722;2023-12-20T17:50:07;6.80;99.90
4651;DHT22;2338;49.602;8.722;2023-12-20T17:52:53;6.90;99.90
4651;DHT22;2338;49.602;8.722;2023-12-20T17:55:43;6.90;99.90
4651;DHT22;2338;49.602;8.722;2023-12-20T17:58:29;6.80;99.90
4651;DHT22;2338;49.602;8.722;2023-12-20T18:01:15;6.90;99.90
4651;DHT22;2338;49.602;8.722;2023-12-20T18:04:00;6.80;99.90
4651;DHT22;2338;49.602;8.722;2023-12-20T18:06:46;6.90;99.90
4651;DHT22;2338;49.602;8.722;2023-12-20T18:09:31;6.90;99.90
4651;DHT22;2338;49.602;8.722;2023-12-20T18:12:19;6.90;99.90
4651;DHT22;2338;49.602;8.722;2023-12-20T18:15:05;6.90;99.90
4651;DHT22;2338;49.602;8.722;2023-12-20T18:17:51;6.90;99.90
4651;DHT22;2338;49.602;8.722;2023-12-20T18:20:37;6.80;99.90
4651;DHT22;2338;49.602;8.722;2023-12-20T18:23:23;6.80;99.90